This is the latest recevied weather packets stored in our database for station/object N1OTX. If no packets are shown the sender has not sent any weather packets the latest 10 day(s).
| Time | Temp. | Humidity | Pressure | Rain* | Wind** | Luminosity | Snow |
|---|---|---|---|---|---|---|---|
| 1777487131 | 13.89° C | 68% | 1015.1 hPa | 0 mm | - | 752 W/m² | - |
| 1777486831 | 14.44° C | 67% | 1014.9 hPa | 0 mm | - | 521 W/m² | - |
| 1777483832 | 13.89° C | 67% | 1015.4 hPa | 0 mm | - | 655 W/m² | - |
| 1777480230 | 11.67° C | 74% | 1015.9 hPa | 0 mm | - | 526 W/m² | - |
| 1777479930 | 11.67° C | 73% | 1015.9 hPa | 0 mm | - | 472 W/m² | - |
| 1777479031 | 11.11° C | 76% | 1015.8 hPa | 0 mm | - | 521 W/m² | - |
| 1777478731 | 11.11° C | 75% | 1015.8 hPa | 0 mm | - | 446 W/m² | - |
| 1777477531 | 11.11° C | 76% | 1016.1 hPa | 0 mm | - | 366 W/m² | - |
| 1777477230 | 11.11° C | 78% | 1016.1 hPa | 0 mm | - | 486 W/m² | - |
| 1777476950 | 10.56° C | 78% | 1016.4 hPa | 0 mm | - | 392 W/m² | - |
| 1777474252 | 9.44° C | 82% | 1017.5 hPa | 0 mm | - | 226 W/m² | - |
| 1777472431 | 8.89° C | 85% | 1018 hPa | 0 mm | - | 157 W/m² | - |
| 1777470632 | 8.89° C | 86% | 1018 hPa | 0 mm | - | 236 W/m² | - |
| 1777469731 | 8.33° C | 86% | 1017.9 hPa | 0 mm | - | 133 W/m² | - |
| 1777469132 | 8.33° C | 87% | 1018.2 hPa | 0 mm | - | 145 W/m² | - |
| 1777468831 | 8.33° C | 87% | 1018.2 hPa | 0 mm | - | 112 W/m² | - |
| 1777467931 | 8.33° C | 87% | 1018.4 hPa | 0 mm | - | 157 W/m² | - |
| 1777467331 | 8.33° C | 87% | 1018.5 hPa | 0 mm | - | 125 W/m² | - |
| 1777465550 | 7.78° C | 88% | 1018.5 hPa | 0 mm | - | 96 W/m² | - |
| 1777464331 | 7.78° C | 85% | 1018.6 hPa | 0 mm | - | 89 W/m² | - |
| 1777461630 | 7.78° C | 85% | 1018.1 hPa | 0 mm | - | 66 W/m² | - |
| 1777457430 | 7.22° C | 85% | 1018 hPa | 0 mm | - | 8 W/m² | - |
| 1777456270 | 7.22° C | 84% | 1017.3 hPa | 0 mm | - | 3 W/m² | - |
| 1777454731 | 7.22° C | 82% | 1017.4 hPa | 0 mm | - | 0 W/m² | - |
| 1777450831 | 7.22° C | 77% | 1017.8 hPa | 0 mm | - | 0 W/m² | - |
* Rain latest hour (hover to see other rain measurements)
** Current wind speed in m/s (hover to see current wind gust speed)